createdAt,value
2017-09-22T00:00:40.343Z,7.70
2017-09-22T00:03:07.890Z,7.60
2017-09-22T00:05:36.182Z,7.50
2017-09-22T00:08:03.716Z,7.50
2017-09-22T00:10:31.254Z,7.50
2017-09-22T00:12:58.844Z,7.40
2017-09-22T00:15:26.373Z,7.40
2017-09-22T00:17:54.993Z,7.30
2017-09-22T00:20:22.533Z,7.30
2017-09-22T00:22:50.065Z,7.40
2017-09-22T00:25:17.632Z,7.30
2017-09-22T00:27:45.928Z,7.20
2017-09-22T00:30:13.467Z,7.10
2017-09-22T00:32:41.764Z,7.00
2017-09-22T00:35:09.375Z,7.00
2017-09-22T00:37:36.929Z,6.90
2017-09-22T00:40:04.448Z,6.90
2017-09-22T00:42:32.009Z,6.90
2017-09-22T00:44:59.549Z,6.80
2017-09-22T00:47:27.883Z,6.90
2017-09-22T00:49:55.420Z,6.90
2017-09-22T00:52:22.968Z,6.90
2017-09-22T00:54:50.516Z,6.90
2017-09-22T00:57:18.096Z,6.90
2017-09-22T00:59:45.640Z,6.90
2017-09-22T01:02:13.194Z,6.90
2017-09-22T01:04:40.719Z,6.90
2017-09-22T01:07:09.047Z,6.90
2017-09-22T01:09:36.624Z,6.90
2017-09-22T01:12:04.184Z,7.00
2017-09-22T01:14:31.764Z,7.00
2017-09-22T01:16:59.318Z,7.10
2017-09-22T01:19:26.846Z,7.00
2017-09-22T01:21:54.384Z,7.10
2017-09-22T01:24:21.955Z,7.10
2017-09-22T01:26:49.525Z,7.20
2017-09-22T01:29:17.066Z,7.30
2017-09-22T01:31:45.392Z,7.40
2017-09-22T01:34:12.933Z,7.40
2017-09-22T01:36:40.497Z,7.50
2017-09-22T01:39:08.031Z,7.50
2017-09-22T01:41:35.645Z,7.50
2017-09-22T01:44:03.192Z,7.50
2017-09-22T01:46:30.746Z,7.60
2017-09-22T01:48:58.293Z,7.50
2017-09-22T01:51:25.834Z,7.50
2017-09-22T01:53:53.369Z,7.40
2017-09-22T01:56:20.956Z,7.40
2017-09-22T01:58:48.529Z,7.50
2017-09-22T02:01:16.068Z,7.60
2017-09-22T02:03:43.605Z,7.50
2017-09-22T02:06:11.165Z,7.50
2017-09-22T02:08:38.745Z,7.50
2017-09-22T02:11:06.288Z,7.50
2017-09-22T02:13:33.822Z,7.50
2017-09-22T02:16:01.361Z,7.50
2017-09-22T02:18:28.879Z,7.50
2017-09-22T02:20:56.411Z,7.50
2017-09-22T02:23:23.965Z,7.40
2017-09-22T02:25:51.525Z,7.40
2017-09-22T02:28:19.832Z,7.30
2017-09-22T02:30:47.392Z,7.40
2017-09-22T02:33:14.950Z,7.30
2017-09-22T02:35:42.496Z,7.30
2017-09-22T02:38:10.062Z,7.30
2017-09-22T02:40:37.597Z,7.20
2017-09-22T02:43:05.167Z,7.20
2017-09-22T02:45:32.711Z,7.20
2017-09-22T02:48:01.053Z,7.10
2017-09-22T02:50:28.600Z,7.10
2017-09-22T02:52:56.160Z,7.00
2017-09-22T02:55:23.727Z,7.00
2017-09-22T02:57:51.283Z,7.00
2017-09-22T03:00:18.810Z,6.90
2017-09-22T03:02:46.360Z,6.90
2017-09-22T03:05:13.896Z,6.90
2017-09-22T03:07:41.457Z,6.90
2017-09-22T03:10:09.773Z,6.80
2017-09-22T03:12:37.330Z,6.80
2017-09-22T03:15:04.858Z,6.70
2017-09-22T03:17:33.186Z,6.60
2017-09-22T03:20:00.719Z,6.60
2017-09-22T03:22:28.276Z,6.60
2017-09-22T03:24:55.840Z,6.50
2017-09-22T03:27:23.388Z,6.50
2017-09-22T03:29:50.941Z,6.40
2017-09-22T03:32:19.219Z,6.30
2017-09-22T03:34:46.760Z,6.30
2017-09-22T03:37:15.058Z,6.20
2017-09-22T03:39:43.082Z,6.20
2017-09-22T03:42:10.604Z,6.20
2017-09-22T03:44:38.133Z,6.20
2017-09-22T03:47:06.458Z,6.20
2017-09-22T03:49:33.989Z,6.20
2017-09-22T03:52:01.534Z,6.30
2017-09-22T03:54:29.133Z,6.40
2017-09-22T03:56:56.693Z,6.30
2017-09-22T03:59:24.232Z,6.40
2017-09-22T04:01:51.796Z,6.40
2017-09-22T04:04:19.327Z,6.30
2017-09-22T04:06:47.604Z,6.30
2017-09-22T04:09:15.917Z,6.40
2017-09-22T04:11:43.443Z,6.40
2017-09-22T04:14:10.993Z,6.30
2017-09-22T04:16:39.308Z,6.30
2017-09-22T04:19:06.857Z,6.30
2017-09-22T04:21:34.395Z,6.30
2017-09-22T04:24:02.692Z,6.30
2017-09-22T04:26:31.004Z,6.30
2017-09-22T04:28:58.556Z,6.20
2017-09-22T04:31:26.151Z,6.20
2017-09-22T04:33:54.489Z,6.20
2017-09-22T04:36:22.001Z,6.20
2017-09-22T04:38:49.527Z,6.10
2017-09-22T04:41:17.072Z,6.10
2017-09-22T04:43:44.589Z,6.00
2017-09-22T04:46:12.135Z,6.00
2017-09-22T04:48:40.434Z,6.00
2017-09-22T04:51:07.992Z,6.00
2017-09-22T04:53:35.576Z,6.00
2017-09-22T04:56:03.150Z,6.00
2017-09-22T04:58:30.674Z,6.00
2017-09-22T05:00:58.247Z,5.90
2017-09-22T05:03:25.814Z,5.90
2017-09-22T05:05:53.365Z,5.80
2017-09-22T05:08:20.922Z,5.70
2017-09-22T05:10:48.470Z,5.70
2017-09-22T05:13:16.018Z,5.60
2017-09-22T05:15:43.552Z,5.60
2017-09-22T05:18:11.878Z,5.50
2017-09-22T05:20:39.402Z,5.50
2017-09-22T05:23:07.709Z,5.50
2017-09-22T05:25:35.263Z,5.50
2017-09-22T05:28:02.812Z,5.50
2017-09-22T05:30:30.346Z,5.60
2017-09-22T05:32:57.890Z,5.60
2017-09-22T05:35:25.435Z,5.60
2017-09-22T05:37:52.974Z,5.60
2017-09-22T05:40:20.518Z,5.70
2017-09-22T05:42:48.051Z,5.70
2017-09-22T05:45:15.582Z,5.80
2017-09-22T05:47:43.910Z,5.90
2017-09-22T05:50:11.445Z,5.80
2017-09-22T05:52:38.996Z,5.90
2017-09-22T05:55:07.312Z,6.10
2017-09-22T05:57:34.827Z,6.10
2017-09-22T06:00:03.146Z,6.20
2017-09-22T06:02:30.690Z,6.20
2017-09-22T06:04:58.708Z,6.40
2017-09-22T06:07:26.228Z,6.70
2017-09-22T06:09:53.770Z,7.20
2017-09-22T06:12:21.308Z,7.90
2017-09-22T06:14:49.607Z,8.70
2017-09-22T06:17:17.181Z,8.80
2017-09-22T06:19:44.744Z,9.10
2017-09-22T06:22:12.356Z,9.50
2017-09-22T06:24:40.681Z,10.30
2017-09-22T06:27:08.214Z,10.30
2017-09-22T06:29:35.745Z,10.30
2017-09-22T06:32:04.096Z,10.00
2017-09-22T06:34:31.618Z,9.90
2017-09-22T06:36:59.179Z,9.40
2017-09-22T06:39:26.710Z,9.10
2017-09-22T06:41:54.272Z,9.30
2017-09-22T06:44:22.580Z,10.60
2017-09-22T06:46:50.417Z,10.70
2017-09-22T06:49:18.709Z,11.40
2017-09-22T06:51:46.241Z,11.30
2017-09-22T06:54:13.808Z,11.50
2017-09-22T06:56:42.112Z,11.20
2017-09-22T06:59:09.649Z,11.10
2017-09-22T07:01:37.942Z,11.10
2017-09-22T07:04:05.523Z,11.10
2017-09-22T07:06:33.034Z,11.30
2017-09-22T07:09:00.601Z,11.50
2017-09-22T07:11:28.914Z,11.70
2017-09-22T07:13:56.470Z,11.70
2017-09-22T07:16:24.033Z,12.10
2017-09-22T07:18:51.557Z,12.40
2017-09-22T07:21:19.883Z,12.40
2017-09-22T07:23:47.430Z,12.30
2017-09-22T07:26:14.999Z,12.40
2017-09-22T07:28:42.545Z,12.30
2017-09-22T07:31:10.103Z,12.30
2017-09-22T07:33:37.658Z,12.30
2017-09-22T07:36:05.988Z,12.70
2017-09-22T07:38:33.591Z,12.80
2017-09-22T07:41:01.155Z,13.10
2017-09-22T07:43:28.692Z,13.30
2017-09-22T07:45:57.009Z,13.10
2017-09-22T07:48:24.566Z,13.10
2017-09-22T07:50:52.097Z,12.90
2017-09-22T07:53:19.658Z,12.90
2017-09-22T07:55:47.801Z,12.80
2017-09-22T07:58:15.361Z,12.90
2017-09-22T08:00:42.935Z,13.10
2017-09-22T08:03:11.247Z,13.30
2017-09-22T08:05:38.824Z,13.30
2017-09-22T08:08:07.098Z,13.50
2017-09-22T08:10:34.741Z,13.70
2017-09-22T08:13:02.280Z,13.90
2017-09-22T08:15:29.843Z,14.10
2017-09-22T08:17:57.405Z,14.20
2017-09-22T08:20:24.965Z,14.50
2017-09-22T08:22:52.813Z,14.60
2017-09-22T08:25:20.403Z,14.80
2017-09-22T08:27:47.951Z,14.90
2017-09-22T08:30:15.796Z,15.10
2017-09-22T08:32:43.344Z,15.20
2017-09-22T08:35:11.672Z,15.30
2017-09-22T08:37:39.252Z,15.30
2017-09-22T08:40:06.851Z,15.50
2017-09-22T08:42:34.437Z,15.20
2017-09-22T08:45:02.016Z,15.40
2017-09-22T08:47:29.568Z,15.50
2017-09-22T08:49:57.132Z,15.60
2017-09-22T08:52:25.032Z,15.70
2017-09-22T08:54:53.360Z,16.10
2017-09-22T08:57:20.918Z,16.10
2017-09-22T08:59:48.494Z,16.10
2017-09-22T09:02:16.034Z,16.00
2017-09-22T09:04:43.867Z,16.10
2017-09-22T09:07:12.193Z,16.30
2017-09-22T09:09:39.737Z,16.30
2017-09-22T09:12:08.107Z,16.60
2017-09-22T09:14:35.687Z,16.50
2017-09-22T09:17:03.253Z,16.30
2017-09-22T09:19:30.789Z,16.50
2017-09-22T09:21:59.134Z,16.90
2017-09-22T09:24:26.701Z,18.20
2017-09-22T09:26:55.026Z,17.20
2017-09-22T09:29:22.587Z,17.20
2017-09-22T09:31:50.141Z,17.30
2017-09-22T09:34:17.701Z,17.40
2017-09-22T09:36:45.268Z,17.60
2017-09-22T09:39:12.842Z,17.60
2017-09-22T09:41:41.201Z,17.90
2017-09-22T09:44:09.166Z,17.80
2017-09-22T09:46:36.697Z,18.00
2017-09-22T09:49:04.226Z,18.10
2017-09-22T09:51:31.787Z,18.30
2017-09-22T09:54:00.077Z,18.40
2017-09-22T09:56:28.428Z,18.30
2017-09-22T09:58:55.988Z,18.30
2017-09-22T10:01:24.340Z,18.40
2017-09-22T10:03:51.880Z,18.40
2017-09-22T10:06:19.429Z,18.60
2017-09-22T10:08:46.982Z,18.50
2017-09-22T10:11:14.549Z,18.40
2017-09-22T10:13:42.102Z,18.60
2017-09-22T10:16:09.664Z,18.70
2017-09-22T10:18:37.955Z,18.80
2017-09-22T10:21:05.499Z,18.80
2017-09-22T10:23:33.329Z,18.90
2017-09-22T10:26:00.888Z,18.90
2017-09-22T10:28:30.062Z,19.30
2017-09-22T10:30:57.632Z,19.30
2017-09-22T10:33:25.205Z,19.50
2017-09-22T10:35:53.976Z,19.80
2017-09-22T10:38:21.549Z,19.70
2017-09-22T10:40:49.865Z,20.00
2017-09-22T10:43:17.458Z,19.90
2017-09-22T10:45:45.008Z,20.00
2017-09-22T10:48:12.595Z,20.30
2017-09-22T10:50:40.149Z,20.40
2017-09-22T10:53:07.729Z,20.40
2017-09-22T10:55:35.285Z,20.10
2017-09-22T10:58:03.623Z,20.50
2017-09-22T11:00:31.183Z,20.50
2017-09-22T11:02:58.735Z,20.60
2017-09-22T11:05:26.324Z,20.50
2017-09-22T11:07:53.873Z,20.60
2017-09-22T11:10:21.456Z,20.60
2017-09-22T11:12:49.742Z,20.70
2017-09-22T11:15:18.090Z,20.80
2017-09-22T11:17:45.674Z,20.70
2017-09-22T11:20:13.982Z,20.80
2017-09-22T11:22:41.556Z,20.80
2017-09-22T11:25:09.103Z,20.70
2017-09-22T11:27:36.677Z,20.40
2017-09-22T11:30:05.080Z,20.20
2017-09-22T11:32:33.049Z,19.90
2017-09-22T11:35:00.686Z,19.80
2017-09-22T11:37:28.263Z,19.80
2017-09-22T11:39:55.810Z,19.90
2017-09-22T11:42:23.355Z,19.90
2017-09-22T11:44:50.967Z,19.80
2017-09-22T11:47:19.282Z,20.20
2017-09-22T11:49:46.881Z,20.10
2017-09-22T11:52:14.419Z,20.30
2017-09-22T11:54:41.950Z,20.40
2017-09-22T11:57:10.238Z,20.80
2017-09-22T11:59:37.799Z,20.80
2017-09-22T12:02:05.324Z,21.00
2017-09-22T12:04:32.900Z,21.10
2017-09-22T12:07:01.299Z,20.90
2017-09-22T12:09:28.851Z,20.90
2017-09-22T12:11:56.402Z,20.90
2017-09-22T12:14:23.949Z,20.90
2017-09-22T12:16:52.267Z,20.80
2017-09-22T12:19:19.835Z,20.80
2017-09-22T12:21:47.488Z,20.60
2017-09-22T12:24:15.046Z,20.70
2017-09-22T12:26:42.644Z,20.80
2017-09-22T12:29:10.199Z,20.80
2017-09-22T12:31:37.731Z,21.00
2017-09-22T12:34:05.278Z,21.00
2017-09-22T12:36:32.822Z,20.80
2017-09-22T12:39:00.358Z,20.80
2017-09-22T12:41:28.678Z,20.50
2017-09-22T12:43:56.227Z,20.50
2017-09-22T12:46:23.785Z,20.30
2017-09-22T12:48:51.320Z,20.00
2017-09-22T12:51:18.910Z,19.80
2017-09-22T12:53:46.864Z,19.70
2017-09-22T12:56:15.681Z,19.40
2017-09-22T12:58:43.275Z,19.40
2017-09-22T13:01:10.833Z,19.30
2017-09-22T13:03:38.431Z,19.10
2017-09-22T13:06:06.024Z,19.00
2017-09-22T13:08:34.554Z,19.00
2017-09-22T13:11:02.172Z,19.10
2017-09-22T13:13:30.110Z,19.10
2017-09-22T13:15:57.702Z,19.30
2017-09-22T13:18:25.269Z,19.30
2017-09-22T13:20:52.920Z,19.30
2017-09-22T13:23:20.522Z,19.30
2017-09-22T13:25:48.831Z,19.50
2017-09-22T13:28:16.402Z,19.50
2017-09-22T13:30:44.060Z,19.50
2017-09-22T13:33:11.617Z,19.60
2017-09-22T13:35:39.284Z,19.70
2017-09-22T13:38:06.896Z,19.60
2017-09-22T13:40:34.480Z,19.60
2017-09-22T13:43:02.065Z,19.50
2017-09-22T13:45:29.645Z,19.50
2017-09-22T13:47:57.279Z,19.40
2017-09-22T13:50:25.454Z,19.40
2017-09-22T13:52:53.012Z,19.40
2017-09-22T13:55:20.588Z,19.40
2017-09-22T13:57:48.181Z,19.20
2017-09-22T14:00:15.891Z,19.20
2017-09-22T14:02:43.458Z,19.00
2017-09-22T14:05:11.001Z,19.00
2017-09-22T14:07:39.227Z,19.00
2017-09-22T14:10:06.790Z,18.90
2017-09-22T14:12:34.395Z,18.80
2017-09-22T14:15:01.995Z,18.70
2017-09-22T14:17:29.583Z,18.70
2017-09-22T14:19:57.960Z,18.60
2017-09-22T14:22:25.546Z,18.60
2017-09-22T14:24:53.126Z,18.60
2017-09-22T14:27:21.445Z,18.60
2017-09-22T14:29:49.011Z,18.70
2017-09-22T14:32:16.576Z,18.60
2017-09-22T14:34:44.124Z,18.50
2017-09-22T14:37:11.683Z,18.40
2017-09-22T14:39:39.241Z,18.30
2017-09-22T14:42:06.807Z,18.30
2017-09-22T14:44:34.361Z,18.20
2017-09-22T14:47:01.933Z,18.10
2017-09-22T14:49:29.515Z,18.10
2017-09-22T14:51:57.079Z,18.10
2017-09-22T14:54:24.645Z,18.10
2017-09-22T14:56:52.198Z,18.00
2017-09-22T14:59:19.750Z,17.90
2017-09-22T15:01:47.312Z,18.00
2017-09-22T15:04:14.870Z,17.80
2017-09-22T15:06:42.439Z,17.80
2017-09-22T15:09:10.290Z,17.90
2017-09-22T15:13:59.494Z,17.70
2017-09-22T15:16:27.549Z,17.70
2017-09-22T15:18:55.118Z,17.60
2017-09-22T15:21:22.685Z,17.70
2017-09-22T15:23:50.220Z,17.60
2017-09-22T15:26:18.119Z,17.50
2017-09-22T15:28:45.676Z,17.50
2017-09-22T15:31:13.228Z,17.60
2017-09-22T15:33:40.784Z,17.50
2017-09-22T15:36:08.304Z,17.50
2017-09-22T15:38:36.614Z,17.60
2017-09-22T15:41:04.152Z,17.70
2017-09-22T15:43:32.461Z,18.30
2017-09-22T15:46:00.143Z,18.20
2017-09-22T15:48:27.729Z,18.80
2017-09-22T15:50:55.293Z,19.70
2017-09-22T15:53:22.844Z,20.70
2017-09-22T15:55:50.394Z,21.60
2017-09-22T15:58:17.964Z,22.30
2017-09-22T16:00:45.545Z,23.00
2017-09-22T16:03:13.851Z,24.50
2017-09-22T16:05:41.447Z,23.70
2017-09-22T16:08:09.066Z,23.80
2017-09-22T16:10:36.644Z,23.60
2017-09-22T16:13:04.184Z,23.90
2017-09-22T16:15:32.016Z,24.40
2017-09-22T16:18:00.322Z,25.50
2017-09-22T16:20:27.904Z,25.50
2017-09-22T16:22:55.541Z,25.70
2017-09-22T16:25:23.103Z,25.90
2017-09-22T16:27:51.034Z,25.90
2017-09-22T16:30:18.595Z,25.80
2017-09-22T16:32:46.127Z,25.50
2017-09-22T16:35:13.751Z,25.30
2017-09-22T16:37:41.315Z,25.20
2017-09-22T16:40:08.913Z,24.90
2017-09-22T16:42:36.480Z,24.70
2017-09-22T16:45:04.027Z,24.20
2017-09-22T16:47:31.602Z,23.30
2017-09-22T16:49:59.166Z,22.60
2017-09-22T16:52:26.729Z,21.90
2017-09-22T16:54:54.277Z,21.10
2017-09-22T16:57:21.865Z,20.50
2017-09-22T16:59:50.208Z,19.40
2017-09-22T17:02:17.762Z,19.40
2017-09-22T17:04:45.345Z,19.10
2017-09-22T17:07:12.902Z,18.70
2017-09-22T17:09:41.042Z,18.40
2017-09-22T17:12:08.619Z,18.00
2017-09-22T17:14:36.189Z,17.70
2017-09-22T17:17:03.784Z,17.40
2017-09-22T17:19:32.109Z,16.80
2017-09-22T17:21:59.677Z,16.80
2017-09-22T17:24:27.368Z,16.60
2017-09-22T17:26:54.890Z,16.40
2017-09-22T17:29:22.512Z,16.30
2017-09-22T17:31:50.300Z,16.10
2017-09-22T17:34:17.876Z,15.90
2017-09-22T17:36:45.555Z,15.80
2017-09-22T17:39:13.106Z,15.70
2017-09-22T17:41:40.673Z,15.50
2017-09-22T17:44:12.515Z,15.20
2017-09-22T17:46:41.532Z,15.30
2017-09-22T17:49:10.358Z,15.00
2017-09-22T17:51:38.845Z,14.80
2017-09-22T17:54:06.440Z,11.50
2017-09-22T17:56:34.011Z,14.80
2017-09-22T17:59:01.610Z,14.70
2017-09-22T18:01:29.957Z,14.60
2017-09-22T18:03:58.734Z,14.70
2017-09-22T18:06:26.301Z,14.50
2017-09-22T18:08:53.856Z,14.50
2017-09-22T18:11:21.480Z,14.40
2017-09-22T18:13:49.319Z,14.30
2017-09-22T18:16:17.686Z,14.10
2017-09-22T18:18:46.004Z,13.90
2017-09-22T18:21:13.619Z,13.90
2017-09-22T18:23:41.200Z,13.70
2017-09-22T18:26:09.534Z,13.30
2017-09-22T18:28:37.098Z,13.30
2017-09-22T18:31:04.656Z,13.00
2017-09-22T18:33:32.219Z,12.80
2017-09-22T18:35:59.774Z,12.60
2017-09-22T18:38:27.334Z,12.40
2017-09-22T18:40:54.892Z,12.20
2017-09-22T18:43:22.489Z,12.20
2017-09-22T18:45:50.844Z,12.00
2017-09-22T18:48:18.439Z,12.00
2017-09-22T18:50:46.032Z,11.90
2017-09-22T18:53:13.622Z,11.80
2017-09-22T18:55:41.186Z,11.60
2017-09-22T18:58:08.766Z,11.50
2017-09-22T19:00:37.124Z,11.50
2017-09-22T19:03:04.735Z,11.50
2017-09-22T19:05:32.346Z,11.50
2017-09-22T19:07:59.925Z,11.50
2017-09-22T19:10:28.306Z,11.50
2017-09-22T19:12:55.883Z,11.50
2017-09-22T19:15:23.436Z,11.50
2017-09-22T19:17:51.055Z,11.30
2017-09-22T19:20:18.605Z,11.30
2017-09-22T19:22:46.163Z,11.30
2017-09-22T19:25:13.766Z,11.20
2017-09-22T19:27:42.094Z,11.20
2017-09-22T19:30:09.677Z,11.20
2017-09-22T19:32:37.260Z,11.20
2017-09-22T19:35:05.355Z,11.10
2017-09-22T19:37:32.922Z,11.10
2017-09-22T19:40:00.511Z,11.00
2017-09-22T19:42:28.110Z,11.00
2017-09-22T19:44:56.425Z,10.80
2017-09-22T19:47:24.017Z,10.80
2017-09-22T19:49:51.588Z,10.80
2017-09-22T19:52:19.177Z,10.80
2017-09-22T19:54:46.850Z,10.90
2017-09-22T19:57:14.452Z,10.90
2017-09-22T19:59:42.021Z,10.90
2017-09-22T20:02:09.589Z,10.90
2017-09-22T20:04:37.178Z,11.00
2017-09-22T20:07:04.730Z,10.90
2017-09-22T20:09:32.300Z,10.80
2017-09-22T20:11:59.876Z,10.70
2017-09-22T20:14:27.452Z,10.60
2017-09-22T20:16:55.037Z,10.60
2017-09-22T20:19:22.602Z,10.60
2017-09-22T20:21:50.189Z,10.50
2017-09-22T20:24:17.765Z,10.50
2017-09-22T20:26:45.309Z,10.50
2017-09-22T20:29:13.654Z,10.60
2017-09-22T20:31:41.198Z,10.50
2017-09-22T20:34:08.755Z,10.60
2017-09-22T20:36:36.363Z,10.60
2017-09-22T20:39:03.934Z,10.70
2017-09-22T20:41:31.501Z,10.70
2017-09-22T20:43:59.059Z,10.70
2017-09-22T20:46:26.619Z,10.60
2017-09-22T20:48:54.256Z,10.40
2017-09-22T20:51:22.624Z,10.10
2017-09-22T20:53:50.958Z,10.10
2017-09-22T20:56:18.538Z,10.10
2017-09-22T20:58:46.124Z,10.00
2017-09-22T21:01:14.440Z,10.00
2017-09-22T21:03:42.036Z,9.90
2017-09-22T21:06:09.589Z,9.90
2017-09-22T21:08:37.163Z,9.90
2017-09-22T21:11:04.736Z,9.90
2017-09-22T21:13:33.097Z,10.00
2017-09-22T21:16:00.649Z,9.80
2017-09-22T21:18:28.235Z,10.00
2017-09-22T21:20:56.550Z,10.00
2017-09-22T21:23:24.097Z,10.00
2017-09-22T21:25:51.654Z,10.00
2017-09-22T21:28:19.229Z,10.10
2017-09-22T21:30:46.800Z,10.00
2017-09-22T21:33:14.369Z,10.00
2017-09-22T21:35:41.897Z,10.00
2017-09-22T21:38:09.454Z,9.90
2017-09-22T21:40:38.135Z,9.80
2017-09-22T21:43:05.708Z,9.70
2017-09-22T21:45:33.271Z,9.80
2017-09-22T21:48:00.813Z,9.80
2017-09-22T21:50:28.742Z,9.80
2017-09-22T21:52:56.295Z,9.80
2017-09-22T21:55:23.863Z,9.80
2017-09-22T21:57:51.433Z,9.80
2017-09-22T22:00:19.000Z,9.70
2017-09-22T22:02:47.348Z,9.60
2017-09-22T22:05:20.614Z,9.50
2017-09-22T22:07:48.198Z,9.60
2017-09-22T22:10:15.739Z,9.50
2017-09-22T22:12:43.327Z,9.50
2017-09-22T22:15:10.877Z,9.40
2017-09-22T22:17:38.847Z,9.50
2017-09-22T22:20:06.387Z,9.40
2017-09-22T22:22:33.954Z,9.30
2017-09-22T22:25:01.524Z,9.30
2017-09-22T22:27:29.113Z,9.20
2017-09-22T22:29:56.671Z,9.20
2017-09-22T22:32:25.017Z,9.20
2017-09-22T22:34:53.485Z,9.20
2017-09-22T22:37:21.045Z,9.20
2017-09-22T22:39:48.596Z,9.40
2017-09-22T22:42:16.153Z,9.30
2017-09-22T22:44:43.722Z,9.50
2017-09-22T22:47:11.272Z,9.40
2017-09-22T22:49:38.803Z,9.50
2017-09-22T22:52:06.380Z,9.50
2017-09-22T22:54:33.995Z,9.50
2017-09-22T22:57:01.549Z,9.50
2017-09-22T22:59:29.119Z,9.50
2017-09-22T23:01:56.685Z,9.50
2017-09-22T23:04:25.024Z,9.50
2017-09-22T23:06:52.607Z,9.40
2017-09-22T23:09:20.158Z,9.40
2017-09-22T23:11:47.702Z,9.40
2017-09-22T23:14:15.244Z,9.40
2017-09-22T23:16:42.802Z,9.30
2017-09-22T23:19:10.337Z,9.30
2017-09-22T23:21:37.893Z,9.30
2017-09-22T23:24:05.457Z,9.20
2017-09-22T23:26:32.992Z,9.20
2017-09-22T23:29:00.566Z,9.20
2017-09-22T23:31:28.874Z,9.00
2017-09-22T23:33:56.408Z,8.90
2017-09-22T23:36:23.942Z,8.80
2017-09-22T23:38:52.267Z,8.70
2017-09-22T23:41:19.841Z,8.70
2017-09-22T23:43:47.626Z,8.60
2017-09-22T23:46:15.183Z,8.70
2017-09-22T23:48:42.718Z,8.70
2017-09-22T23:51:10.297Z,8.70
2017-09-22T23:53:37.851Z,8.70
2017-09-22T23:56:05.409Z,8.70
2017-09-22T23:58:32.957Z,8.50
